Time,TemperatureF,DewpointF,PressureIn,WindDirection,WindDirectionDegrees,WindSpeedMPH,WindSpeedGustMPH,Humidity,HourlyPrecipIn,Conditions,Clouds,dailyrainin,SoftwareType,DateUTC
2013-04-21 00:25:00,33.2,27.7,30.47,SE,139,0.0,1.0,80,0.00,,,0.00,Wunderground v.1.15,2013-04-21 05:25:00,
2013-04-21 00:30:00,33.1,27.6,30.48,SE,139,0.0,0.0,80,0.00,,,0.00,Wunderground v.1.15,2013-04-21 05:30:00,
2013-04-21 00:40:00,33.2,27.7,30.48,SE,139,0.0,0.0,80,0.00,,,0.00,Wunderground v.1.15,2013-04-21 05:40:00,
2013-04-21 00:45:00,33.3,28.1,30.48,SE,138,0.0,0.0,81,0.00,,,0.00,Wunderground v.1.15,2013-04-21 05:45:00,
2013-04-21 00:50:00,33.4,27.9,30.48,SE,139,0.0,0.0,80,0.00,,,0.00,Wunderground v.1.15,2013-04-21 05:50:00,
2013-04-21 00:55:00,33.3,27.8,30.49,SE,138,0.0,0.0,80,0.00,,,0.00,Wunderground v.1.15,2013-04-21 05:55:00,
2013-04-21 01:05:00,32.9,27.7,30.49,SE,139,0.0,0.0,81,0.00,,,0.00,Wunderground v.1.15,2013-04-21 06:05:00,
2013-04-21 01:15:00,32.4,27.5,30.49,SE,139,0.0,0.0,82,0.00,,,0.00,Wunderground v.1.15,2013-04-21 06:15:00,
2013-04-21 01:20:00,32.3,27.7,30.49,SE,139,0.0,0.0,83,0.00,,,0.00,Wunderground v.1.15,2013-04-21 06:20:00,
2013-04-21 01:25:00,32.3,27.7,30.49,SE,139,0.0,0.0,83,0.00,,,0.00,Wunderground v.1.15,2013-04-21 06:25:00,
2013-04-21 01:35:00,32.1,27.5,30.50,SE,139,0.0,0.0,83,0.00,,,0.00,Wunderground v.1.15,2013-04-21 06:35:00,
2013-04-21 01:40:00,32.2,27.9,30.50,SE,138,0.0,0.0,84,0.00,,,0.00,Wunderground v.1.15,2013-04-21 06:40:00,
2013-04-21 01:45:00,32.3,28.0,30.50,SE,139,0.0,0.0,84,0.00,,,0.00,Wunderground v.1.15,2013-04-21 06:45:00,
2013-04-21 01:50:00,32.3,27.7,30.50,SE,138,0.0,0.0,83,0.00,,,0.00,Wunderground v.1.15,2013-04-21 06:50:00,
2013-04-21 02:00:00,32.4,27.8,30.50,SE,139,0.0,0.0,83,0.00,,,0.00,Wunderground v.1.15,2013-04-21 07:00:00,
2013-04-21 02:05:00,32.3,27.7,30.50,SE,139,0.0,0.0,83,0.00,,,0.00,Wunderground v.1.15,2013-04-21 07:05:00,
2013-04-21 02:15:00,32.1,27.8,30.50,SE,139,0.0,0.0,84,0.00,,,0.00,Wunderground v.1.15,2013-04-21 07:15:00,
2013-04-21 02:25:00,32.8,28.5,30.50,ESE,109,0.0,1.0,84,0.00,,,0.00,Wunderground v.1.15,2013-04-21 07:25:00,
2013-04-21 02:30:00,33.2,28.9,30.49,ESE,109,0.0,2.0,84,0.00,,,0.00,Wunderground v.1.15,2013-04-21 07:30:00,
2013-04-21 02:35:00,33.6,29.0,30.49,SE,134,1.0,4.0,83,0.00,,,0.00,Wunderground v.1.15,2013-04-21 07:35:00,
2013-04-21 02:40:00,33.9,29.3,30.49,SE,136,2.0,2.0,83,0.00,,,0.00,Wunderground v.1.15,2013-04-21 07:40:00,
2013-04-21 02:45:00,33.9,29.0,30.49,ESE,122,2.0,2.0,82,0.00,,,0.00,Wunderground v.1.15,2013-04-21 07:45:00,
2013-04-21 02:50:00,34.0,29.1,30.49,SE,131,1.0,1.0,82,0.00,,,0.00,Wunderground v.1.15,2013-04-21 07:50:00,
2013-04-21 02:55:00,34.0,29.1,30.49,SSE,152,2.0,2.0,82,0.00,,,0.00,Wunderground v.1.15,2013-04-21 07:55:00,
2013-04-21 03:00:00,34.1,29.2,30.49,SSE,152,3.0,3.0,82,0.00,,,0.00,Wunderground v.1.15,2013-04-21 08:00:00,
2013-04-21 03:05:00,34.0,29.1,30.49,SE,134,3.0,3.0,82,0.00,,,0.00,Wunderground v.1.15,2013-04-21 08:05:00,
2013-04-21 03:15:00,34.0,29.1,30.49,SE,126,2.0,5.0,82,0.00,,,0.00,Wunderground v.1.15,2013-04-21 08:15:00,
2013-04-21 03:20:00,33.8,28.9,30.49,SE,129,3.0,3.0,82,0.00,,,0.00,Wunderground v.1.15,2013-04-21 08:20:00,
2013-04-21 03:30:00,33.7,28.8,30.49,SE,129,3.0,4.0,82,0.00,,,0.00,Wunderground v.1.15,2013-04-21 08:30:00,
2013-04-21 03:40:00,33.6,28.7,30.49,SE,136,3.0,3.0,82,0.00,,,0.00,Wunderground v.1.15,2013-04-21 08:40:00,
2013-04-21 03:45:00,33.5,28.6,30.49,SE,137,3.0,5.0,82,0.00,,,0.00,Wunderground v.1.15,2013-04-21 08:45:00,
2013-04-21 03:50:00,33.5,28.6,30.49,SE,138,4.0,7.0,82,0.00,,,0.00,Wunderground v.1.15,2013-04-21 08:50:00,
2013-04-21 03:55:00,33.4,28.5,30.49,SE,145,4.0,7.0,82,0.00,,,0.00,Wunderground v.1.15,2013-04-21 08:55:00,
2013-04-21 04:05:00,33.4,28.8,30.49,SSE,148,3.0,6.0,83,0.00,,,0.00,Wunderground v.1.15,2013-04-21 09:05:00,
2013-04-21 04:15:00,33.4,28.8,30.49,SE,142,2.0,3.0,83,0.00,,,0.00,Wunderground v.1.15,2013-04-21 09:15:00,
2013-04-21 04:25:00,33.4,28.8,30.49,SSE,152,3.0,4.0,83,0.00,,,0.00,Wunderground v.1.15,2013-04-21 09:25:00,
2013-04-21 04:30:00,33.5,28.9,30.49,SE,146,2.0,4.0,83,0.00,,,0.00,Wunderground v.1.15,2013-04-21 09:30:00,
2013-04-21 04:40:00,33.6,29.0,30.48,SE,134,2.0,6.0,83,0.00,,,0.00,Wunderground v.1.15,2013-04-21 09:40:00,
2013-04-21 04:45:00,33.7,29.1,30.48,SE,141,2.0,6.0,83,0.00,,,0.00,Wunderground v.1.15,2013-04-21 09:45:00,
2013-04-21 04:50:00,33.7,28.8,30.48,ESE,119,3.0,3.0,82,0.00,,,0.00,Wunderground v.1.15,2013-04-21 09:50:00,
2013-04-21 04:55:00,33.7,28.8,30.48,SSE,153,2.0,4.0,82,0.00,,,0.00,Wunderground v.1.15,2013-04-21 09:55:00,
2013-04-21 05:05:00,33.8,28.9,30.48,SE,137,3.0,3.0,82,0.00,,,0.00,Wunderground v.1.15,2013-04-21 10:05:00,
2013-04-21 05:15:00,33.9,28.7,30.48,SSE,149,2.0,7.0,81,0.00,,,0.00,Wunderground v.1.15,2013-04-21 10:15:00,
2013-04-21 05:20:00,33.9,28.7,30.49,SE,142,3.0,5.0,81,0.00,,,0.00,Wunderground v.1.15,2013-04-21 10:20:00,
2013-04-21 05:25:00,34.0,28.5,30.49,SSE,150,4.0,7.0,80,0.00,,,0.00,Wunderground v.1.15,2013-04-21 10:25:00,
2013-04-21 05:30:00,34.0,28.5,30.48,SE,132,3.0,3.0,80,0.00,,,0.00,Wunderground v.1.15,2013-04-21 10:30:00,
2013-04-21 05:35:00,34.1,28.6,30.48,ESE,118,2.0,3.0,80,0.00,,,0.00,Wunderground v.1.15,2013-04-21 10:35:00,
2013-04-21 05:40:00,34.2,28.7,30.49,SE,133,3.0,3.0,80,0.00,,,0.00,Wunderground v.1.15,2013-04-21 10:40:00,
2013-04-21 05:45:00,34.2,28.4,30.48,SE,142,4.0,9.0,79,0.00,,,0.00,Wunderground v.1.15,2013-04-21 10:45:00,
2013-04-21 05:50:00,34.3,28.5,30.49,SSE,160,4.0,4.0,79,0.00,,,0.00,Wunderground v.1.15,2013-04-21 10:50:00,
2013-04-21 06:00:00,34.2,28.4,30.50,South,171,2.0,5.0,79,0.00,,,0.00,Wunderground v.1.15,2013-04-21 11:00:00,
2013-04-21 06:05:00,34.3,28.5,30.51,SSE,160,1.0,5.0,79,0.00,,,0.00,Wunderground v.1.15,2013-04-21 11:05:00,
2013-04-21 06:15:00,34.3,28.5,30.51,SSE,155,2.0,5.0,79,0.00,,,0.00,Wunderground v.1.15,2013-04-21 11:15:00,
2013-04-21 06:25:00,34.3,28.5,30.52,SSE,159,2.0,4.0,79,0.00,,,0.00,Wunderground v.1.15,2013-04-21 11:25:00,
2013-04-21 06:30:00,34.4,28.9,30.52,SE,124,3.0,4.0,80,0.00,,,0.00,Wunderground v.1.15,2013-04-21 11:30:00,
2013-04-21 06:35:00,34.4,28.6,30.53,SSE,157,2.0,4.0,79,0.00,,,0.00,Wunderground v.1.15,2013-04-21 11:35:00,
2013-04-21 06:40:00,34.4,28.6,30.54,SE,139,3.0,4.0,79,0.00,,,0.00,Wunderground v.1.15,2013-04-21 11:40:00,
2013-04-21 06:45:00,34.6,28.4,30.55,SE,142,3.0,4.0,78,0.00,,,0.00,Wunderground v.1.15,2013-04-21 11:45:00,
2013-04-21 06:50:00,34.7,28.5,30.55,SE,143,1.0,1.0,78,0.00,,,0.00,Wunderground v.1.15,2013-04-21 11:50:00,
2013-04-21 07:00:00,34.8,28.6,30.55,SSE,149,3.0,4.0,78,0.00,,,0.00,Wunderground v.1.15,2013-04-21 12:00:00,
2013-04-21 07:05:00,34.9,28.7,30.56,SE,145,4.0,5.0,78,0.00,,,0.00,Wunderground v.1.15,2013-04-21 12:05:00,
2013-04-21 07:15:00,35.0,28.8,30.56,SE,140,2.0,3.0,78,0.00,,,0.00,Wunderground v.1.15,2013-04-21 12:15:00,
2013-04-21 07:20:00,35.0,28.8,30.56,SE,144,2.0,2.0,78,0.00,,,0.00,Wunderground v.1.15,2013-04-21 12:20:00,
2013-04-21 07:25:00,35.0,28.8,30.56,SSE,153,2.0,2.0,78,0.00,,,0.00,Wunderground v.1.15,2013-04-21 12:25:00,
2013-04-21 07:35:00,35.2,29.0,30.56,SSE,154,4.0,11.0,78,0.00,,,0.00,Wunderground v.1.15,2013-04-21 12:35:00,
2013-04-21 07:40:00,35.2,29.0,30.56,SSE,149,6.0,6.0,78,0.00,,,0.00,Wunderground v.1.15,2013-04-21 12:40:00,
2013-04-21 07:50:00,35.3,29.1,30.56,SSE,150,5.0,5.0,78,0.00,,,0.00,Wunderground v.1.15,2013-04-21 12:50:00,
2013-04-21 08:00:00,35.6,29.1,30.56,SE,144,6.0,6.0,77,0.00,,,0.00,Wunderground v.1.15,2013-04-21 13:00:00,
2013-04-21 08:05:00,35.7,29.2,30.56,SSE,161,7.0,7.0,77,0.00,,,0.00,Wunderground v.1.15,2013-04-21 13:05:00,
2013-04-21 08:15:00,35.9,29.4,30.56,SE,137,7.0,7.0,77,0.00,,,0.00,Wunderground v.1.15,2013-04-21 13:15:00,
2013-04-21 08:20:00,35.9,29.4,30.56,SSE,162,7.0,7.0,77,0.00,,,0.00,Wunderground v.1.15,2013-04-21 13:20:00,
2013-04-21 08:25:00,36.1,29.6,30.56,SE,137,7.0,9.0,77,0.00,,,0.00,Wunderground v.1.15,2013-04-21 13:25:00,
2013-04-21 08:30:00,36.3,29.8,30.56,SSE,152,6.0,14.0,77,0.00,,,0.00,Wunderground v.1.15,2013-04-21 13:30:00,
2013-04-21 08:35:00,36.6,30.4,30.55,SSE,147,6.0,14.0,78,0.00,,,0.00,Wunderground v.1.15,2013-04-21 13:35:00,
2013-04-21 08:45:00,37.0,30.1,30.55,SSE,157,9.0,9.0,76,0.00,,,0.00,Wunderground v.1.15,2013-04-21 13:45:00,
2013-04-21 08:50:00,37.3,30.4,30.55,SSE,161,9.0,11.0,76,0.00,,,0.00,Wunderground v.1.15,2013-04-21 13:50:00,
2013-04-21 09:00:00,37.8,30.6,30.55,SSE,155,9.0,14.0,75,0.00,,,0.00,Wunderground v.1.15,2013-04-21 14:00:00,
2013-04-21 09:05:00,38.2,30.6,30.54,SE,142,8.0,14.0,74,0.00,,,0.00,Wunderground v.1.15,2013-04-21 14:05:00,
2013-04-21 09:15:00,38.7,30.8,30.55,SSE,158,10.0,16.0,73,0.00,,,0.00,Wunderground v.1.15,2013-04-21 14:15:00,
2013-04-21 09:20:00,38.9,30.6,30.55,SSE,152,11.0,13.0,72,0.00,,,0.00,Wunderground v.1.15,2013-04-21 14:20:00,
2013-04-21 09:25:00,39.5,31.6,30.54,SSE,163,9.0,13.0,73,0.00,,,0.00,Wunderground v.1.15,2013-04-21 14:25:00,
2013-04-21 09:30:00,39.6,30.6,30.54,SSE,153,9.0,9.0,70,0.00,,,0.00,Wunderground v.1.15,2013-04-21 14:30:00,
2013-04-21 09:35:00,39.5,30.2,30.54,SSE,157,10.0,17.0,69,0.00,,,0.00,Wunderground v.1.15,2013-04-21 14:35:00,
2013-04-21 09:40:00,39.3,30.0,30.54,SSE,153,11.0,11.0,69,0.00,,,0.00,Wunderground v.1.15,2013-04-21 14:40:00,
2013-04-21 09:50:00,40.7,31.0,30.54,SE,134,10.0,15.0,68,0.00,,,0.00,Wunderground v.1.15,2013-04-21 14:50:00,
2013-04-21 09:55:00,41.0,31.6,30.54,SSE,148,11.0,15.0,69,0.00,,,0.00,Wunderground v.1.15,2013-04-21 14:55:00,
2013-04-21 10:05:00,40.8,29.9,30.54,SE,128,14.0,16.0,65,0.00,,,0.00,Wunderground v.1.15,2013-04-21 15:05:00,
2013-04-21 10:15:00,41.2,31.1,30.53,SSE,148,13.0,16.0,67,0.00,,,0.00,Wunderground v.1.15,2013-04-21 15:15:00,
2013-04-21 10:20:00,41.4,30.9,30.53,SSE,161,12.0,12.0,66,0.00,,,0.00,Wunderground v.1.15,2013-04-21 15:20:00,
2013-04-21 10:25:00,41.3,30.8,30.53,SE,136,14.0,14.0,66,0.00,,,0.00,Wunderground v.1.15,2013-04-21 15:25:00,
2013-04-21 10:30:00,42.0,31.1,30.53,SE,142,14.0,14.0,65,0.00,,,0.00,Wunderground v.1.15,2013-04-21 15:30:00,
2013-04-21 10:35:00,42.1,31.2,30.53,South,191,13.0,14.0,65,0.00,,,0.00,Wunderground v.1.15,2013-04-21 15:35:00,
2013-04-21 10:45:00,42.8,31.5,30.52,SSE,163,13.0,14.0,64,0.00,,,0.00,Wunderground v.1.15,2013-04-21 15:45:00,
2013-04-21 10:50:00,43.1,31.0,30.52,SSE,153,13.0,16.0,62,0.00,,,0.00,Wunderground v.1.15,2013-04-21 15:50:00,
2013-04-21 11:00:00,43.3,30.7,30.52,SSE,153,15.0,15.0,61,0.00,,,0.00,Wunderground v.1.15,2013-04-21 16:00:00,
2013-04-21 11:05:00,43.7,31.5,30.51,SE,138,15.0,15.0,62,0.00,,,0.00,Wunderground v.1.15,2013-04-21 16:05:00,
2013-04-21 11:15:00,44.2,31.2,30.51,SE,136,13.0,14.0,60,0.00,,,0.00,Wunderground v.1.15,2013-04-21 16:15:00,
2013-04-21 11:20:00,44.4,31.8,30.51,SSE,147,13.0,14.0,61,0.00,,,0.00,Wunderground v.1.15,2013-04-21 16:20:00,
2013-04-21 11:25:00,44.9,32.3,30.51,South,169,12.0,17.0,61,0.00,,,0.00,Wunderground v.1.15,2013-04-21 16:25:00,
2013-04-21 11:30:00,45.2,32.1,30.51,SE,136,13.0,14.0,60,0.00,,,0.00,Wunderground v.1.15,2013-04-21 16:30:00,
2013-04-21 11:35:00,45.7,33.0,30.50,South,175,14.0,14.0,61,0.00,,,0.00,Wunderground v.1.15,2013-04-21 16:35:00,
2013-04-21 11:45:00,45.9,34.0,30.50,ESE,121,12.0,14.0,63,0.00,,,0.00,Wunderground v.1.15,2013-04-21 16:45:00,
2013-04-21 11:50:00,45.5,32.4,30.50,SSE,162,11.0,17.0,60,0.00,,,0.00,Wunderground v.1.15,2013-04-21 16:50:00,
2013-04-21 11:55:00,45.4,33.1,30.49,SE,145,11.0,17.0,62,0.00,,,0.00,Wunderground v.1.15,2013-04-21 16:55:00,
2013-04-21 12:00:00,45.1,32.4,30.49,SSE,147,12.0,15.0,61,0.00,,,0.00,Wunderground v.1.15,2013-04-21 17:00:00,
2013-04-21 12:05:00,45.9,33.2,30.49,South,179,13.0,15.0,61,0.00,,,0.00,Wunderground v.1.15,2013-04-21 17:05:00,
2013-04-21 12:15:00,46.0,33.7,30.48,SE,145,14.0,14.0,62,0.00,,,0.00,Wunderground v.1.15,2013-04-21 17:15:00,
2013-04-21 12:20:00,46.4,32.8,30.48,SE,146,15.0,15.0,59,0.00,,,0.00,Wunderground v.1.15,2013-04-21 17:20:00,
2013-04-21 12:25:00,47.2,34.0,30.47,South,188,15.0,15.0,60,0.00,,,0.00,Wunderground v.1.15,2013-04-21 17:25:00,
2013-04-21 12:30:00,47.2,33.6,30.47,SSW,192,13.0,13.0,59,0.00,,,0.00,Wunderground v.1.15,2013-04-21 17:30:00,
2013-04-21 12:35:00,47.5,34.7,30.47,SSE,153,12.0,13.0,61,0.00,,,0.00,Wunderground v.1.15,2013-04-21 17:35:00,
2013-04-21 12:45:00,48.0,34.8,30.47,SE,133,13.0,16.0,60,0.00,,,0.00,Wunderground v.1.15,2013-04-21 17:45:00,
2013-04-21 12:50:00,47.7,33.6,30.47,South,188,13.0,13.0,58,0.00,,,0.00,Wunderground v.1.15,2013-04-21 17:50:00,
2013-04-21 12:55:00,48.1,35.3,30.46,SSE,153,14.0,17.0,61,0.00,,,0.00,Wunderground v.1.15,2013-04-21 17:55:00,
2013-04-21 13:00:00,47.9,35.1,30.46,SE,144,15.0,15.0,61,0.00,,,0.00,Wunderground v.1.15,2013-04-21 18:00:00,
2013-04-21 13:05:00,47.9,34.3,30.46,South,183,13.0,15.0,59,0.00,,,0.00,Wunderground v.1.15,2013-04-21 18:05:00,
2013-04-21 13:15:00,49.0,34.9,30.45,SSE,161,13.0,16.0,58,0.00,,,0.00,Wunderground v.1.15,2013-04-21 18:15:00,
2013-04-21 13:20:00,49.2,35.5,30.45,SE,138,13.0,13.0,59,0.00,,,0.00,Wunderground v.1.15,2013-04-21 18:20:00,
2013-04-21 13:25:00,49.5,36.2,30.45,SE,135,11.0,13.0,60,0.00,,,0.00,Wunderground v.1.15,2013-04-21 18:25:00,
2013-04-21 13:30:00,49.8,36.0,30.45,South,176,11.0,11.0,59,0.00,,,0.00,Wunderground v.1.15,2013-04-21 18:30:00,
2013-04-21 13:35:00,50.3,37.4,30.45,SSE,149,12.0,18.0,61,0.00,,,0.00,Wunderground v.1.15,2013-04-21 18:35:00,
2013-04-21 13:45:00,50.5,37.5,30.45,SE,146,11.0,13.0,61,0.00,,,0.00,Wunderground v.1.15,2013-04-21 18:45:00,
2013-04-21 13:50:00,50.1,37.6,30.45,SSE,165,13.0,15.0,62,0.00,,,0.00,Wunderground v.1.15,2013-04-21 18:50:00,
2013-04-21 13:55:00,49.9,37.0,30.44,SSE,157,14.0,15.0,61,0.00,,,0.00,Wunderground v.1.15,2013-04-21 18:55:00,
2013-04-21 14:00:00,50.8,38.2,30.44,SE,146,13.0,13.0,62,0.00,,,0.00,Wunderground v.1.15,2013-04-21 19:00:00,
2013-04-21 14:05:00,50.5,36.7,30.44,SE,146,12.0,19.0,59,0.00,,,0.00,Wunderground v.1.15,2013-04-21 19:05:00,
2013-04-21 14:15:00,49.8,37.3,30.43,SSE,157,12.0,13.0,62,0.00,,,0.00,Wunderground v.1.15,2013-04-21 19:15:00,
2013-04-21 14:20:00,49.8,36.9,30.43,SE,140,12.0,12.0,61,0.00,,,0.00,Wunderground v.1.15,2013-04-21 19:20:00,
2013-04-21 14:25:00,50.3,37.8,30.43,SSE,150,12.0,18.0,62,0.00,,,0.00,Wunderground v.1.15,2013-04-21 19:25:00,
2013-04-21 14:30:00,50.6,37.6,30.42,SSW,192,13.0,13.0,61,0.00,,,0.00,Wunderground v.1.15,2013-04-21 19:30:00,
2013-04-21 14:35:00,50.9,38.3,30.42,SE,141,12.0,13.0,62,0.00,,,0.00,Wunderground v.1.15,2013-04-21 19:35:00,
2013-04-21 14:45:00,51.3,38.3,30.42,SSE,149,11.0,11.0,61,0.00,,,0.00,Wunderground v.1.15,2013-04-21 19:45:00,
2013-04-21 14:50:00,50.8,38.2,30.42,SSE,157,11.0,15.0,62,0.00,,,0.00,Wunderground v.1.15,2013-04-21 19:50:00,
2013-04-21 14:55:00,50.8,38.7,30.41,SSE,150,12.0,15.0,63,0.00,,,0.00,Wunderground v.1.15,2013-04-21 19:55:00,
2013-04-21 15:00:00,51.5,39.3,30.41,SE,146,12.0,12.0,63,0.00,,,0.00,Wunderground v.1.15,2013-04-21 20:00:00,
2013-04-21 15:05:00,52.1,39.1,30.41,South,175,12.0,12.0,61,0.00,,,0.00,Wunderground v.1.15,2013-04-21 20:05:00,
2013-04-21 15:15:00,52.5,39.0,30.40,South,177,12.0,14.0,60,0.00,,,0.00,Wunderground v.1.15,2013-04-21 20:15:00,
2013-04-21 15:20:00,52.7,38.8,30.40,South,169,12.0,12.0,59,0.00,,,0.00,Wunderground v.1.15,2013-04-21 20:20:00,
2013-04-21 15:25:00,52.6,38.7,30.40,SSE,151,13.0,16.0,59,0.00,,,0.00,Wunderground v.1.15,2013-04-21 20:25:00,
2013-04-21 15:30:00,52.4,38.9,30.40,SSE,167,13.0,17.0,60,0.00,,,0.00,Wunderground v.1.15,2013-04-21 20:30:00,
2013-04-21 15:35:00,52.5,39.0,30.40,SSW,194,14.0,17.0,60,0.00,,,0.00,Wunderground v.1.15,2013-04-21 20:35:00,
2013-04-21 15:45:00,52.9,39.4,30.39,SSE,158,13.0,14.0,60,0.00,,,0.00,Wunderground v.1.15,2013-04-21 20:45:00,
2013-04-21 15:50:00,53.4,40.3,30.39,SSE,159,12.0,15.0,61,0.00,,,0.00,Wunderground v.1.15,2013-04-21 20:50:00,
2013-04-21 15:55:00,53.6,40.5,30.39,SE,141,11.0,15.0,61,0.00,,,0.00,Wunderground v.1.15,2013-04-21 20:55:00,
2013-04-21 16:00:00,53.7,40.1,30.39,SSE,148,11.0,13.0,60,0.00,,,0.00,Wunderground v.1.15,2013-04-21 21:00:00,
2013-04-21 16:05:00,53.6,40.0,30.38,SE,141,11.0,14.0,60,0.00,,,0.00,Wunderground v.1.15,2013-04-21 21:05:00,
2013-04-21 16:15:00,53.2,40.5,30.38,SSE,151,16.0,17.0,62,0.00,,,0.00,Wunderground v.1.15,2013-04-21 21:15:00,
2013-04-21 16:20:00,53.8,41.1,30.37,SSE,157,14.0,23.0,62,0.00,,,0.00,Wunderground v.1.15,2013-04-21 21:20:00,
2013-04-21 16:25:00,53.9,40.3,30.37,SE,140,13.0,23.0,60,0.00,,,0.00,Wunderground v.1.15,2013-04-21 21:25:00,
2013-04-21 16:30:00,53.8,40.7,30.37,SE,140,14.0,15.0,61,0.00,,,0.00,Wunderground v.1.15,2013-04-21 21:30:00,
2013-04-21 16:40:00,53.9,40.8,30.37,SSE,165,15.0,15.0,61,0.00,,,0.00,Wunderground v.1.15,2013-04-21 21:40:00,
2013-04-21 16:45:00,53.9,40.3,30.36,SSE,157,15.0,17.0,60,0.00,,,0.00,Wunderground v.1.15,2013-04-21 21:45:00,
2013-04-21 16:50:00,54.2,41.0,30.36,SSE,161,14.0,14.0,61,0.00,,,0.00,Wunderground v.1.15,2013-04-21 21:50:00,
2013-04-21 16:55:00,54.2,40.6,30.36,SSE,149,12.0,18.0,60,0.00,,,0.00,Wunderground v.1.15,2013-04-21 21:55:00,
2013-04-21 17:00:00,54.4,41.2,30.36,SSE,157,12.0,12.0,61,0.00,,,0.00,Wunderground v.1.15,2013-04-21 22:00:00,
2013-04-21 17:05:00,54.6,41.0,30.36,SSE,165,11.0,12.0,60,0.00,,,0.00,Wunderground v.1.15,2013-04-21 22:05:00,
2013-04-21 17:15:00,54.3,41.1,30.36,SSE,153,11.0,19.0,61,0.00,,,0.00,Wunderground v.1.15,2013-04-21 22:15:00,
2013-04-21 17:20:00,54.2,41.5,30.36,South,174,13.0,13.0,62,0.00,,,0.00,Wunderground v.1.15,2013-04-21 22:20:00,
2013-04-21 17:30:00,54.3,42.0,30.36,SE,144,12.0,12.0,63,0.00,,,0.00,Wunderground v.1.15,2013-04-21 22:30:00,
2013-04-21 17:35:00,54.3,40.7,30.36,SSE,156,12.0,12.0,60,0.00,,,0.00,Wunderground v.1.15,2013-04-21 22:35:00,
2013-04-21 17:45:00,54.2,41.5,30.35,SE,143,11.0,12.0,62,0.00,,,0.00,Wunderground v.1.15,2013-04-21 22:45:00,
2013-04-21 17:50:00,54.1,41.4,30.35,SSE,153,12.0,12.0,62,0.00,,,0.00,Wunderground v.1.15,2013-04-21 22:50:00,
2013-04-21 17:55:00,54.1,41.8,30.35,SE,144,13.0,14.0,63,0.00,,,0.00,Wunderground v.1.15,2013-04-21 22:55:00,
2013-04-21 18:00:00,54.0,40.8,30.35,SSE,153,13.0,17.0,61,0.00,,,0.00,Wunderground v.1.15,2013-04-21 23:00:00,
2013-04-21 18:05:00,53.9,41.2,30.35,SE,145,12.0,17.0,62,0.00,,,0.00,Wunderground v.1.15,2013-04-21 23:05:00,
2013-04-21 18:15:00,53.8,41.5,30.35,SSE,163,12.0,14.0,63,0.00,,,0.00,Wunderground v.1.15,2013-04-21 23:15:00,
2013-04-21 18:20:00,53.8,41.1,30.34,SSE,149,12.0,13.0,62,0.00,,,0.00,Wunderground v.1.15,2013-04-21 23:20:00,
2013-04-21 18:25:00,53.7,41.4,30.34,SE,137,12.0,13.0,63,0.00,,,0.00,Wunderground v.1.15,2013-04-21 23:25:00,
2013-04-21 18:30:00,53.6,41.3,30.34,SSE,150,12.0,12.0,63,0.00,,,0.00,Wunderground v.1.15,2013-04-21 23:30:00,
2013-04-21 18:35:00,53.4,41.1,30.34,SSE,156,12.0,13.0,63,0.00,,,0.00,Wunderground v.1.15,2013-04-21 23:35:00,
2013-04-21 18:45:00,53.1,41.6,30.34,SE,142,10.0,12.0,65,0.00,,,0.00,Wunderground v.1.15,2013-04-21 23:45:00,
2013-04-21 18:50:00,53.1,41.6,30.34,SE,145,10.0,10.0,65,0.00,,,0.00,Wunderground v.1.15,2013-04-21 23:50:00,
2013-04-21 18:55:00,52.9,41.0,30.34,SSE,158,11.0,16.0,64,0.00,,,0.00,Wunderground v.1.15,2013-04-21 23:55:00,
2013-04-21 19:05:00,52.6,41.2,30.34,SSE,157,10.0,11.0,65,0.00,,,0.00,Wunderground v.1.15,2013-04-22 00:05:00,
2013-04-21 19:15:00,52.3,40.9,30.35,South,171,8.0,11.0,65,0.00,,,0.00,Wunderground v.1.15,2013-04-22 00:15:00,
2013-04-21 19:25:00,52.1,41.1,30.35,SSE,154,7.0,8.0,66,0.00,,,0.00,Wunderground v.1.15,2013-04-22 00:25:00,
2013-04-21 19:30:00,51.8,40.8,30.35,SE,145,7.0,10.0,66,0.00,,,0.00,Wunderground v.1.15,2013-04-22 00:30:00,
2013-04-21 19:35:00,51.7,40.7,30.34,SSE,152,8.0,10.0,66,0.00,,,0.00,Wunderground v.1.15,2013-04-22 00:35:00,
2013-04-21 19:40:00,51.5,40.5,30.35,SSE,151,8.0,9.0,66,0.00,,,0.00,Wunderground v.1.15,2013-04-22 00:40:00,
2013-04-21 19:45:00,51.4,40.4,30.35,SSE,151,8.0,9.0,66,0.00,,,0.00,Wunderground v.1.15,2013-04-22 00:45:00,
2013-04-21 19:50:00,51.2,40.6,30.35,SSE,153,9.0,11.0,67,0.00,,,0.00,Wunderground v.1.15,2013-04-22 00:50:00,
2013-04-21 19:55:00,50.9,40.3,30.35,SE,137,8.0,11.0,67,0.00,,,0.00,Wunderground v.1.15,2013-04-22 00:55:00,
2013-04-21 20:05:00,50.5,40.3,30.34,SSE,156,7.0,8.0,68,0.00,,,0.00,Wunderground v.1.15,2013-04-22 01:05:00,
2013-04-21 20:15:00,50.1,40.7,30.34,SSE,153,8.0,13.0,70,0.00,,,0.00,Wunderground v.1.15,2013-04-22 01:15:00,
2013-04-21 20:25:00,49.6,40.6,30.35,SSE,148,7.0,8.0,71,0.00,,,0.00,Wunderground v.1.15,2013-04-22 01:25:00,
2013-04-21 20:30:00,49.4,40.4,30.35,SSE,155,7.0,7.0,71,0.00,,,0.00,Wunderground v.1.15,2013-04-22 01:30:00,
2013-04-21 20:35:00,49.2,40.6,30.35,SSE,159,7.0,7.0,72,0.00,,,0.00,Wunderground v.1.15,2013-04-22 01:35:00,
2013-04-21 20:45:00,49.0,40.4,30.36,SSE,167,7.0,8.0,72,0.00,,,0.00,Wunderground v.1.15,2013-04-22 01:45:00,
2013-04-21 20:50:00,48.9,40.6,30.36,SSE,164,7.0,7.0,73,0.00,,,0.00,Wunderground v.1.15,2013-04-22 01:50:00,
2013-04-21 20:55:00,48.6,40.3,30.36,SE,142,7.0,7.0,73,0.00,,,0.00,Wunderground v.1.15,2013-04-22 01:55:00,
2013-04-21 21:00:00,48.5,40.2,30.36,SSE,154,7.0,9.0,73,0.00,,,0.00,Wunderground v.1.15,2013-04-22 02:00:00,
2013-04-21 21:05:00,48.4,40.1,30.36,SSE,157,8.0,9.0,73,0.00,,,0.00,Wunderground v.1.15,2013-04-22 02:05:00,
2013-04-21 21:15:00,48.2,40.3,30.36,SSE,165,6.0,7.0,74,0.00,,,0.00,Wunderground v.1.15,2013-04-22 02:15:00,
2013-04-21 21:20:00,48.2,40.3,30.37,SE,141,6.0,9.0,74,0.00,,,0.00,Wunderground v.1.15,2013-04-22 02:20:00,
2013-04-21 21:25:00,48.2,40.3,30.37,SE,142,7.0,9.0,74,0.00,,,0.00,Wunderground v.1.15,2013-04-22 02:25:00,
2013-04-21 21:35:00,48.1,39.9,30.37,SSE,163,7.0,7.0,73,0.00,,,0.00,Wunderground v.1.15,2013-04-22 02:35:00,
2013-04-21 21:45:00,47.8,39.9,30.37,SSE,152,8.0,15.0,74,0.00,,,0.00,Wunderground v.1.15,2013-04-22 02:45:00,
2013-04-21 21:50:00,47.8,39.9,30.36,SE,146,8.0,8.0,74,0.00,,,0.00,Wunderground v.1.15,2013-04-22 02:50:00,
2013-04-21 21:55:00,47.7,39.8,30.36,SSE,148,9.0,10.0,74,0.00,,,0.00,Wunderground v.1.15,2013-04-22 02:55:00,
2013-04-21 22:00:00,47.6,39.7,30.36,SSE,156,10.0,10.0,74,0.00,,,0.00,Wunderground v.1.15,2013-04-22 03:00:00,
2013-04-21 22:05:00,47.6,39.7,30.36,SE,144,10.0,10.0,74,0.00,,,0.00,Wunderground v.1.15,2013-04-22 03:05:00,
2013-04-21 22:15:00,47.4,39.5,30.36,SE,146,8.0,9.0,74,0.00,,,0.00,Wunderground v.1.15,2013-04-22 03:15:00,
2013-04-21 22:25:00,47.2,39.3,30.36,SE,144,7.0,7.0,74,0.00,,,0.00,Wunderground v.1.15,2013-04-22 03:25:00,
2013-04-21 22:35:00,47.0,39.1,30.36,SSE,150,9.0,11.0,74,0.00,,,0.00,Wunderground v.1.15,2013-04-22 03:35:00,
2013-04-21 22:40:00,47.0,39.1,30.37,SE,146,9.0,9.0,74,0.00,,,0.00,Wunderground v.1.15,2013-04-22 03:40:00,
2013-04-21 22:45:00,47.0,39.1,30.37,SSE,153,9.0,13.0,74,0.00,,,0.00,Wunderground v.1.15,2013-04-22 03:45:00,
2013-04-21 22:50:00,47.0,39.1,30.37,SE,128,8.0,8.0,74,0.00,,,0.00,Wunderground v.1.15,2013-04-22 03:50:00,
2013-04-21 22:55:00,47.0,39.1,30.37,SSE,149,9.0,9.0,74,0.00,,,0.00,Wunderground v.1.15,2013-04-22 03:55:00,
2013-04-21 23:05:00,46.9,39.0,30.36,SSE,165,10.0,14.0,74,0.00,,,0.00,Wunderground v.1.15,2013-04-22 04:05:00,
2013-04-21 23:10:00,46.7,38.9,30.36,SE,141,10.0,10.0,74,0.00,,,0.00,Wunderground v.1.15,2013-04-22 04:10:00,
2013-04-21 23:15:00,46.7,38.9,30.36,SSE,167,10.0,15.0,74,0.00,,,0.00,Wunderground v.1.15,2013-04-22 04:15:00,
2013-04-21 23:25:00,46.7,38.9,30.35,SE,142,11.0,11.0,74,0.00,,,0.00,Wunderground v.1.15,2013-04-22 04:25:00,
2013-04-21 23:30:00,46.6,38.8,30.35,SSE,156,10.0,14.0,74,0.00,,,0.00,Wunderground v.1.15,2013-04-22 04:30:00,
2013-04-21 23:35:00,46.6,38.8,30.35,SE,146,10.0,14.0,74,0.00,,,0.00,Wunderground v.1.15,2013-04-22 04:35:00,
2013-04-21 23:40:00,46.4,38.6,30.36,SE,142,9.0,9.0,74,0.00,,,0.00,Wunderground v.1.15,2013-04-22 04:40:00,
2013-04-21 23:45:00,46.3,38.5,30.36,SSE,149,9.0,9.0,74,0.00,,,0.00,Wunderground v.1.15,2013-04-22 04:45:00,
2013-04-21 23:55:00,46.2,38.4,30.35,SSE,148,9.0,9.0,74,0.00,,,0.00,Wunderground v.1.15,2013-04-22 04:55:00,